createdAt,value
2023-03-20T00:00:48.619Z,9.84
2023-03-20T00:01:49.134Z,9.85
2023-03-20T00:02:49.892Z,9.85
2023-03-20T00:03:50.458Z,9.85
2023-03-20T00:04:51.475Z,9.88
2023-03-20T00:05:51.012Z,9.85
2023-03-20T00:06:52.243Z,9.81
2023-03-20T00:07:51.927Z,9.84
2023-03-20T00:08:53.125Z,9.84
2023-03-20T00:09:53.450Z,9.87
2023-03-20T00:10:53.668Z,9.84
2023-03-20T00:11:54.893Z,9.87
2023-03-20T00:12:55.097Z,9.82
2023-03-20T00:13:55.736Z,9.82
2023-03-20T00:14:56.405Z,9.97
2023-03-20T00:15:57.447Z,9.92
2023-03-20T00:16:57.461Z,9.99
2023-03-20T00:17:58.091Z,9.95
2023-03-20T00:18:58.384Z,9.94
2023-03-20T00:19:58.949Z,10
2023-03-20T00:20:58.855Z,9.94
2023-03-20T00:21:59.065Z,10.02
2023-03-20T00:22:59.789Z,9.95
2023-03-20T00:24:01.291Z,10.03
2023-03-20T00:25:01.802Z,10
2023-03-20T00:26:02.038Z,9.99
2023-03-20T00:27:02.967Z,9.84
2023-03-20T00:28:03.613Z,9.84
2023-03-20T00:29:04.533Z,9.84
2023-03-20T00:30:05.554Z,9.84
2023-03-20T00:31:06.227Z,9.74
2023-03-20T00:32:06.573Z,9.77
2023-03-20T00:33:07.199Z,9.8
2023-03-20T00:34:07.372Z,9.73
2023-03-20T00:35:07.891Z,9.76
2023-03-20T00:36:08.243Z,9.74
2023-03-20T00:37:08.353Z,9.73
2023-03-20T00:38:08.570Z,9.77
2023-03-20T00:39:09.772Z,9.73
2023-03-20T00:40:09.771Z,9.76
2023-03-20T00:41:10.703Z,9.74
2023-03-20T00:42:11.333Z,9.72
2023-03-20T00:43:11.508Z,9.69
2023-03-20T00:44:12.751Z,9.76
2023-03-20T00:45:12.982Z,9.72
2023-03-20T00:46:13.863Z,9.64
2023-03-20T00:47:14.405Z,9.62
2023-03-20T00:48:14.664Z,9.66
2023-03-20T00:49:15.933Z,9.67
2023-03-20T00:50:15.903Z,9.64
2023-03-20T00:51:17.115Z,9.64
2023-03-20T00:52:18.062Z,9.7
2023-03-20T00:53:18.846Z,9.66
2023-03-20T00:54:20.072Z,9.7
2023-03-20T00:55:20.332Z,9.67
2023-03-20T00:56:21.250Z,9.7
2023-03-20T00:57:21.180Z,9.7
2023-03-20T00:58:22.705Z,9.62
2023-03-20T00:59:22.657Z,9.66
2023-03-20T01:00:22.885Z,9.55
2023-03-20T01:01:24.285Z,9.54
2023-03-20T01:02:24.449Z,9.51
2023-03-20T01:03:25.001Z,9.54
2023-03-20T01:04:25.665Z,9.52
2023-03-20T01:05:25.675Z,9.55
2023-03-20T01:06:27.081Z,9.52
2023-03-20T01:07:28.090Z,9.51
2023-03-20T01:08:28.036Z,9.49
2023-03-20T01:09:29.248Z,9.51
2023-03-20T01:10:29.534Z,9.51
2023-03-20T01:11:30.158Z,9.59
2023-03-20T01:12:30.078Z,9.52
2023-03-20T01:13:30.651Z,9.52
2023-03-20T01:14:31.605Z,9.51
2023-03-20T01:15:32.841Z,9.51
2023-03-20T01:16:33.464Z,9.51
2023-03-20T01:17:34.295Z,9.55
2023-03-20T01:18:35.491Z,9.52
2023-03-20T01:19:36.071Z,9.51
2023-03-20T01:20:36.331Z,9.49
2023-03-20T01:21:37.260Z,9.54
2023-03-20T01:22:38.193Z,9.51
2023-03-20T01:23:38.636Z,9.58
2023-03-20T01:24:41.199Z,9.58
2023-03-20T01:25:39.299Z,9.54
2023-03-20T01:26:40.258Z,9.52
2023-03-20T01:27:40.525Z,9.52
2023-03-20T01:28:40.736Z,9.54
2023-03-20T01:29:41.232Z,9.51
2023-03-20T01:30:41.465Z,9.44
2023-03-20T01:31:41.458Z,9.49
2023-03-20T01:32:41.921Z,9.49
2023-03-20T01:33:42.344Z,9.48
2023-03-20T01:34:43.516Z,9.48
2023-03-20T01:35:44.467Z,9.42
2023-03-20T01:36:44.800Z,9.48
2023-03-20T01:37:45.718Z,9.52
2023-03-20T01:38:46.649Z,9.44
2023-03-20T01:39:47.258Z,9.51
2023-03-20T01:40:47.883Z,9.51
2023-03-20T01:41:47.815Z,9.52
2023-03-20T01:42:49.058Z,9.39
2023-03-20T01:43:49.818Z,9.45
2023-03-20T01:44:50.738Z,9.42
2023-03-20T01:45:52.188Z,9.44
2023-03-20T01:46:52.004Z,9.45
2023-03-20T01:47:52.376Z,9.51
2023-03-20T01:48:53.327Z,9.47
2023-03-20T01:49:53.655Z,9.42
2023-03-20T01:50:54.195Z,9.37
2023-03-20T01:51:54.685Z,9.26
2023-03-20T01:52:54.898Z,9.24
2023-03-20T01:53:55.223Z,9.3
2023-03-20T01:54:55.432Z,9.33
2023-03-20T01:55:56.353Z,9.29
2023-03-20T01:56:56.289Z,9.39
2023-03-20T01:57:57.512Z,9.39
2023-03-20T01:58:57.469Z,9.4
2023-03-20T01:59:58.700Z,9.36
2023-03-20T02:01:00.107Z,9.39
2023-03-20T02:01:59.824Z,9.34
2023-03-20T02:03:00.784Z,9.31
2023-03-20T02:04:02.080Z,9.27
2023-03-20T02:05:02.687Z,9.27
2023-03-20T02:06:02.585Z,9.33
2023-03-20T02:07:03.229Z,9.3
2023-03-20T02:08:04.175Z,9.34
2023-03-20T02:09:05.108Z,9.37
2023-03-20T02:10:05.605Z,9.39
2023-03-20T02:11:05.822Z,9.4
2023-03-20T02:12:05.744Z,9.42
2023-03-20T02:13:06.966Z,9.36
2023-03-20T02:14:07.996Z,9.42
2023-03-20T02:15:07.938Z,9.33
2023-03-20T02:16:08.221Z,9.44
2023-03-20T02:17:09.561Z,9.42
2023-03-20T02:18:09.793Z,9.48
2023-03-20T02:19:10.749Z,9.45
2023-03-20T02:20:11.137Z,9.45
2023-03-20T02:21:11.366Z,9.47
2023-03-20T02:22:11.724Z,9.49
2023-03-20T02:23:12.962Z,9.48
2023-03-20T02:24:13.237Z,9.51
2023-03-20T02:25:14.170Z,9.44
2023-03-20T02:26:15.112Z,9.44
2023-03-20T02:27:15.605Z,9.48
2023-03-20T02:28:15.822Z,9.47
2023-03-20T02:29:16.028Z,9.42
2023-03-20T02:30:15.990Z,9.44
2023-03-20T02:31:17.420Z,9.51
2023-03-20T02:32:17.767Z,9.52
2023-03-20T02:33:18.568Z,9.4
2023-03-20T02:34:19.678Z,9.51
2023-03-20T02:35:19.953Z,9.48
2023-03-20T02:36:20.321Z,9.48
2023-03-20T02:37:20.550Z,9.44
2023-03-20T02:38:21.215Z,9.48
2023-03-20T02:39:22.178Z,9.42
2023-03-20T02:40:22.133Z,9.47
2023-03-20T02:41:23.680Z,9.44
2023-03-20T02:42:23.811Z,9.44
2023-03-20T02:43:24.234Z,9.42
2023-03-20T02:44:25.220Z,9.4
2023-03-20T02:45:25.953Z,9.37
2023-03-20T02:46:26.748Z,9.39
2023-03-20T02:47:27.183Z,9.34
2023-03-20T02:48:27.841Z,9.37
2023-03-20T02:49:28.220Z,9.36
2023-03-20T02:50:29.924Z,9.37
2023-03-20T02:51:30.145Z,9.39
2023-03-20T02:52:31.093Z,9.33
2023-03-20T02:53:32.072Z,9.44
2023-03-20T02:54:32.150Z,9.39
2023-03-20T02:55:32.132Z,9.4
2023-03-20T02:56:32.113Z,9.37
2023-03-20T02:57:32.477Z,9.39
2023-03-20T02:58:33.432Z,9.39
2023-03-20T02:59:34.354Z,9.39
2023-03-20T03:00:34.322Z,9.42
2023-03-20T03:01:35.639Z,9.42
2023-03-20T03:02:37.066Z,9.37
2023-03-20T03:03:37.452Z,9.31
2023-03-20T03:04:38.204Z,9.3
2023-03-20T03:05:39.955Z,9.34
2023-03-20T03:06:39.925Z,9.3
2023-03-20T03:07:41.127Z,9.27
2023-03-20T03:08:41.758Z,9.3
2023-03-20T03:09:42.257Z,9.33
2023-03-20T03:10:42.451Z,9.36
2023-03-20T03:11:43.124Z,9.39
2023-03-20T03:12:44.318Z,9.29
2023-03-20T03:13:44.836Z,9.33
2023-03-20T03:14:45.593Z,9.39
2023-03-20T03:15:45.688Z,9.29
2023-03-20T03:16:46.059Z,9.27
2023-03-20T03:17:46.706Z,9.31
2023-03-20T03:18:47.200Z,9.26
2023-03-20T03:19:47.685Z,9.29
2023-03-20T03:20:48.241Z,9.3
2023-03-20T03:21:48.807Z,9.3
2023-03-20T03:22:49.009Z,9.26
2023-03-20T03:23:49.577Z,9.24
2023-03-20T03:24:48.414Z,9.21
2023-03-20T03:25:48.638Z,9.22
2023-03-20T03:26:49.129Z,9.15
2023-03-20T03:27:49.050Z,9.15
2023-03-20T03:28:49.661Z,9.19
2023-03-20T03:29:49.856Z,9.21
2023-03-20T03:30:50.147Z,9.21
2023-03-20T03:31:50.137Z,9.19
2023-03-20T03:32:50.633Z,9.22
2023-03-20T03:33:52.004Z,9.26
2023-03-20T03:34:52.351Z,9.24
2023-03-20T03:35:53.937Z,9.19
2023-03-20T03:36:54.306Z,9.21
2023-03-20T03:37:55.518Z,9.24
2023-03-20T03:38:55.717Z,9.31
2023-03-20T03:39:56.630Z,9.11
2023-03-20T03:40:57.319Z,9.11
2023-03-20T03:41:57.692Z,9.13
2023-03-20T03:42:58.996Z,9.05
2023-03-20T03:43:59.233Z,8.93
2023-03-20T03:45:00.044Z,9.12
2023-03-20T03:46:00.992Z,9.02
2023-03-20T03:47:01.560Z,8.92
2023-03-20T03:48:02.496Z,8.95
2023-03-20T03:49:02.699Z,8.92
2023-03-20T03:50:03.345Z,8.86
2023-03-20T03:51:03.900Z,8.84
2023-03-20T03:52:04.424Z,8.82
2023-03-20T03:53:04.792Z,8.75
2023-03-20T03:54:05.283Z,8.86
2023-03-20T03:55:05.632Z,8.82
2023-03-20T03:56:06.483Z,8.84
2023-03-20T03:57:07.508Z,8.79
2023-03-20T03:58:07.456Z,8.93
2023-03-20T03:59:08.749Z,8.84
2023-03-20T04:00:09.261Z,8.86
2023-03-20T04:01:09.629Z,8.92
2023-03-20T04:02:10.284Z,8.93
2023-03-20T04:03:09.996Z,8.95
2023-03-20T04:04:11.280Z,9
2023-03-20T04:05:12.156Z,9
2023-03-20T04:06:13.228Z,9
2023-03-20T04:07:13.742Z,8.97
2023-03-20T04:08:14.661Z,9.05
2023-03-20T04:09:15.099Z,8.97
2023-03-20T04:10:16.012Z,9.16
2023-03-20T04:11:16.260Z,9.09
2023-03-20T04:12:15.900Z,9.05
2023-03-20T04:13:17.396Z,9.08
2023-03-20T04:14:17.911Z,9.11
2023-03-20T04:15:17.625Z,9.02
2023-03-20T04:16:19.019Z,9.13
2023-03-20T04:17:19.127Z,9.15
2023-03-20T04:18:19.637Z,9.12
2023-03-20T04:19:19.833Z,9.09
2023-03-20T04:20:20.351Z,9.22
2023-03-20T04:21:20.922Z,9.19
2023-03-20T04:22:21.491Z,9.12
2023-03-20T04:23:21.689Z,9.09
2023-03-20T04:24:22.627Z,9.13
2023-03-20T04:25:23.751Z,9.18
2023-03-20T04:26:24.575Z,9.15
2023-03-20T04:27:24.801Z,9.12
2023-03-20T04:28:25.741Z,9.13
2023-03-20T04:29:25.975Z,9.11
2023-03-20T04:30:26.443Z,9.12
2023-03-20T04:31:27.096Z,9.12
2023-03-20T04:32:27.282Z,9.16
2023-03-20T04:33:27.714Z,9.13
2023-03-20T04:34:27.943Z,9.03
2023-03-20T04:35:28.691Z,9.05
2023-03-20T04:36:29.232Z,9.13
2023-03-20T04:37:29.201Z,9.13
2023-03-20T04:38:30.714Z,9.12
2023-03-20T04:39:31.362Z,9.13
2023-03-20T04:40:31.659Z,9.09
2023-03-20T04:41:32.596Z,9.13
2023-03-20T04:42:33.245Z,9.16
2023-03-20T04:43:33.761Z,9.13
2023-03-20T04:44:34.247Z,9.09
2023-03-20T04:45:35.964Z,9.11
2023-03-20T04:46:35.952Z,9.13
2023-03-20T04:47:35.880Z,9.12
2023-03-20T04:48:36.816Z,9.09
2023-03-20T04:49:37.754Z,9.16
2023-03-20T04:50:37.675Z,9.02
2023-03-20T04:51:38.948Z,9.13
2023-03-20T04:52:38.917Z,9.08
2023-03-20T04:53:39.859Z,9.03
2023-03-20T04:54:41.177Z,8.97
2023-03-20T04:55:41.865Z,9.05
2023-03-20T04:56:42.501Z,9.09
2023-03-20T04:57:43.142Z,9.02
2023-03-20T04:58:44.368Z,9.02
2023-03-20T04:59:44.579Z,9.11
2023-03-20T05:00:45.011Z,8.99
2023-03-20T05:01:45.381Z,8.96
2023-03-20T05:02:46.326Z,9.08
2023-03-20T05:03:47.494Z,9
2023-03-20T05:04:48.216Z,9
2023-03-20T05:05:48.327Z,9.09
2023-03-20T05:06:48.624Z,9.02
2023-03-20T05:07:48.862Z,9.05
2023-03-20T05:08:49.511Z,9.09
2023-03-20T05:09:50.143Z,9.02
2023-03-20T05:10:50.664Z,9.09
2023-03-20T05:11:50.879Z,9.05
2023-03-20T05:12:51.369Z,9.03
2023-03-20T05:13:51.580Z,9.02
2023-03-20T05:14:52.096Z,9.02
2023-03-20T05:15:52.778Z,9.08
2023-03-20T05:16:53.977Z,9.03
2023-03-20T05:17:57.224Z,9.09
2023-03-20T05:18:54.733Z,9.08
2023-03-20T05:19:54.383Z,9.12
2023-03-20T05:20:55.470Z,9.08
2023-03-20T05:21:57.179Z,9.08
2023-03-20T05:22:57.697Z,9.15
2023-03-20T05:23:58.250Z,8.9
2023-03-20T05:24:58.485Z,9.02
2023-03-20T05:25:59.056Z,9.02
2023-03-20T05:27:00.009Z,9
2023-03-20T05:28:00.524Z,8.99
2023-03-20T05:29:01.449Z,9.05
2023-03-20T05:30:02.090Z,9.03
2023-03-20T05:31:03.587Z,8.97
2023-03-20T05:32:03.446Z,9
2023-03-20T05:33:04.572Z,9.03
2023-03-20T05:34:05.129Z,9.05
2023-03-20T05:35:05.077Z,8.99
2023-03-20T05:36:05.511Z,9.09
2023-03-20T05:37:06.024Z,9.02
2023-03-20T05:38:06.295Z,9.15
2023-03-20T05:39:07.238Z,9.05
2023-03-20T05:40:07.186Z,9.11
2023-03-20T05:41:08.106Z,9.09
2023-03-20T05:42:08.750Z,9.13
2023-03-20T05:43:09.720Z,9.13
2023-03-20T05:44:09.647Z,9.09
2023-03-20T05:45:10.582Z,9.11
2023-03-20T05:46:11.312Z,9.02
2023-03-20T05:47:11.688Z,9.18
2023-03-20T05:48:11.936Z,8.97
2023-03-20T05:49:12.857Z,9.12
2023-03-20T05:50:13.102Z,9.11
2023-03-20T05:51:13.334Z,9.13
2023-03-20T05:52:14.635Z,9.11
2023-03-20T05:53:15.234Z,9.08
2023-03-20T05:54:15.597Z,9.12
2023-03-20T05:55:16.509Z,9.02
2023-03-20T05:56:17.867Z,9.02
2023-03-20T05:57:17.947Z,9.11
2023-03-20T05:58:18.899Z,9.13
2023-03-20T05:59:19.814Z,9.11
2023-03-20T06:00:20.776Z,9.08
2023-03-20T06:01:22.052Z,9.09
2023-03-20T06:02:22.404Z,9.13
2023-03-20T06:03:22.348Z,9.12
2023-03-20T06:04:23.379Z,9.09
2023-03-20T06:05:24.281Z,9.24
2023-03-20T06:06:25.214Z,9.24
2023-03-20T06:07:25.525Z,9.16
2023-03-20T06:08:25.779Z,9.21
2023-03-20T06:09:26.798Z,9.21
2023-03-20T06:10:26.743Z,9.22
2023-03-20T06:11:27.973Z,9.24
2023-03-20T06:12:28.736Z,9.26
2023-03-20T06:13:28.674Z,9.29
2023-03-20T06:14:29.611Z,9.27
2023-03-20T06:15:29.284Z,9.15
2023-03-20T06:16:30.551Z,9.18
2023-03-20T06:17:31.085Z,9.19
2023-03-20T06:18:31.041Z,9.22
2023-03-20T06:19:31.533Z,9.31
2023-03-20T06:20:32.455Z,9.33
2023-03-20T06:21:32.997Z,9.27
2023-03-20T06:22:34.000Z,9.31
2023-03-20T06:23:34.550Z,9.36
2023-03-20T06:24:34.489Z,9.29
2023-03-20T06:25:36.168Z,9.33
2023-03-20T06:26:36.991Z,9.33
2023-03-20T06:27:36.924Z,9.44
2023-03-20T06:28:37.415Z,9.34
2023-03-20T06:29:37.629Z,9.31
2023-03-20T06:30:37.595Z,9.34
2023-03-20T06:31:38.018Z,9.33
2023-03-20T06:32:38.086Z,9.33
2023-03-20T06:33:38.869Z,9.26
2023-03-20T06:34:38.792Z,9.29
2023-03-20T06:35:40.144Z,9.24
2023-03-20T06:36:39.632Z,9.37
2023-03-20T06:37:40.727Z,9.21
2023-03-20T06:38:41.284Z,9.29
2023-03-20T06:39:41.203Z,9.26
2023-03-20T06:40:41.880Z,9.22
2023-03-20T06:41:41.974Z,9.3
2023-03-20T06:42:42.936Z,9.24
2023-03-20T06:43:42.890Z,9.26
2023-03-20T06:44:44.104Z,9.3
2023-03-20T06:45:44.604Z,9.29
2023-03-20T06:46:45.254Z,9.29
2023-03-20T06:47:45.894Z,9.31
2023-03-20T06:48:46.109Z,9.3
2023-03-20T06:49:46.692Z,9.26
2023-03-20T06:50:46.887Z,9.31
2023-03-20T06:51:47.388Z,9.33
2023-03-20T06:52:47.934Z,9.4
2023-03-20T06:53:48.463Z,9.39
2023-03-20T06:54:48.394Z,9.34
2023-03-20T06:55:49.331Z,9.34
2023-03-20T06:56:50.683Z,9.4
2023-03-20T06:57:51.323Z,9.44
2023-03-20T06:58:51.969Z,9.48
2023-03-20T06:59:52.096Z,9.39
2023-03-20T07:00:52.341Z,9.44
2023-03-20T07:01:53.829Z,9.54
2023-03-20T07:02:54.284Z,9.55
2023-03-20T07:03:54.951Z,9.55
2023-03-20T07:04:55.761Z,9.51
2023-03-20T07:05:56.207Z,9.54
2023-03-20T07:06:57.253Z,9.63
2023-03-20T07:07:58.681Z,9.62
2023-03-20T07:08:58.964Z,9.63
2023-03-20T07:09:59.173Z,9.66
2023-03-20T07:10:59.854Z,9.73
2023-03-20T07:12:00.634Z,9.73
2023-03-20T07:13:00.948Z,9.72
2023-03-20T07:14:01.889Z,9.76
2023-03-20T07:15:03.121Z,9.8
2023-03-20T07:16:10.649Z,9.73
2023-03-20T07:17:04.198Z,9.73
2023-03-20T07:18:05.166Z,9.9
2023-03-20T07:19:05.103Z,9.87
2023-03-20T07:20:06.086Z,9.82
2023-03-20T07:21:06.329Z,9.9
2023-03-20T07:22:06.422Z,9.95
2023-03-20T07:23:07.718Z,9.92
2023-03-20T07:24:08.009Z,9.94
2023-03-20T07:25:09.233Z,10.03
2023-03-20T07:26:09.733Z,10.02
2023-03-20T07:27:10.053Z,10.15
2023-03-20T07:28:11.010Z,10.17
2023-03-20T07:29:11.237Z,10.21
2023-03-20T07:30:11.878Z,10.31
2023-03-20T07:31:13.270Z,10.45
2023-03-20T07:32:13.716Z,10.43
2023-03-20T07:33:13.652Z,10.49
2023-03-20T07:34:15.046Z,10.53
2023-03-20T07:35:15.043Z,10.62
2023-03-20T07:36:15.448Z,10.61
2023-03-20T07:37:16.269Z,10.67
2023-03-20T07:38:17.639Z,10.51
2023-03-20T07:39:18.189Z,10.64
2023-03-20T07:40:18.444Z,10.79
2023-03-20T07:41:18.418Z,10.84
2023-03-20T07:42:18.356Z,10.89
2023-03-20T07:43:19.296Z,10.98
2023-03-20T07:44:19.293Z,10.8
2023-03-20T07:45:19.533Z,10.89
2023-03-20T07:46:20.741Z,10.94
2023-03-20T07:47:21.104Z,11.08
2023-03-20T07:48:22.204Z,11.12
2023-03-20T07:49:22.437Z,11.13
2023-03-20T07:50:23.364Z,11.15
2023-03-20T07:51:23.904Z,11.16
2023-03-20T07:52:23.842Z,11.07
2023-03-20T07:53:25.242Z,11.16
2023-03-20T07:54:25.215Z,11.13
2023-03-20T07:55:26.448Z,11.13
2023-03-20T07:56:26.936Z,11.18
2023-03-20T07:57:27.048Z,11.22
2023-03-20T07:58:28.014Z,11.27
2023-03-20T07:59:28.267Z,11.3
2023-03-20T08:00:29.190Z,11.31
2023-03-20T08:01:29.157Z,11.34
2023-03-20T08:02:30.293Z,11.31
2023-03-20T08:03:31.309Z,11.35
2023-03-20T08:04:31.261Z,11.35
2023-03-20T08:05:32.078Z,11.37
2023-03-20T08:06:32.562Z,11.52
2023-03-20T08:07:33.110Z,11.6
2023-03-20T08:08:33.892Z,11.7
2023-03-20T08:09:34.439Z,12.07
2023-03-20T08:10:34.951Z,12.25
2023-03-20T08:11:35.595Z,12.57
2023-03-20T08:12:35.553Z,13.16
2023-03-20T08:13:36.150Z,13.6
2023-03-20T08:14:37.002Z,14.03
2023-03-20T08:15:39.176Z,14.33
2023-03-20T08:16:38.319Z,14.68
2023-03-20T08:17:38.970Z,14.86
2023-03-20T08:18:39.384Z,15.15
2023-03-20T08:19:39.613Z,15.39
2023-03-20T08:20:40.099Z,15.41
2023-03-20T08:21:40.422Z,15.72
2023-03-20T08:22:41.729Z,15.73
2023-03-20T08:23:42.654Z,15.75
2023-03-20T08:24:43.192Z,15.7
2023-03-20T08:25:44.850Z,15.75
2023-03-20T08:26:44.913Z,15.83
2023-03-20T08:27:44.456Z,16.05
2023-03-20T08:28:53.373Z,16.16
2023-03-20T08:29:46.321Z,16.06
2023-03-20T08:30:47.716Z,16
2023-03-20T08:31:47.984Z,15.99
2023-03-20T08:32:48.783Z,15.81
2023-03-20T08:33:48.568Z,15.72
2023-03-20T08:34:49.815Z,15.73
2023-03-20T08:35:51.233Z,15.72
2023-03-20T08:36:51.644Z,15.73
2023-03-20T08:37:52.293Z,15.66
2023-03-20T08:38:53.298Z,15.59
2023-03-20T08:39:53.922Z,15.52
2023-03-20T08:40:54.294Z,15.59
2023-03-20T08:41:55.669Z,15.66
2023-03-20T08:42:56.512Z,15.72
2023-03-20T08:43:57.085Z,15.69
2023-03-20T08:44:57.317Z,15.9
2023-03-20T08:45:57.804Z,16.16
2023-03-20T08:46:58.156Z,16.51
2023-03-20T08:47:58.528Z,16.68
2023-03-20T08:48:59.069Z,16.66
2023-03-20T08:49:59.289Z,16.68
2023-03-20T08:50:59.256Z,16.59
2023-03-20T08:51:59.894Z,16.59
2023-03-20T08:53:00.832Z,16.59
2023-03-20T08:54:01.424Z,16.44
2023-03-20T08:55:02.169Z,16.29
2023-03-20T08:56:02.165Z,16
2023-03-20T08:57:02.419Z,15.8
2023-03-20T08:58:03.803Z,15.7
2023-03-20T08:59:04.314Z,15.8
2023-03-20T09:00:04.547Z,15.99
2023-03-20T09:01:05.608Z,16.61
2023-03-20T09:02:06.042Z,17.02
2023-03-20T09:03:06.825Z,17.56
2023-03-20T09:04:07.342Z,17.93
2023-03-20T09:05:07.757Z,18.15
2023-03-20T09:06:08.060Z,18.36
2023-03-20T09:07:09.397Z,18.51
2023-03-20T09:08:09.182Z,18.52
2023-03-20T09:09:10.541Z,18.68
2023-03-20T09:10:11.415Z,18.82
2023-03-20T09:11:11.403Z,18.79
2023-03-20T09:12:12.419Z,18.88
2023-03-20T09:13:31.639Z,18.71
2023-03-20T09:14:12.677Z,18.67
2023-03-20T09:15:14.072Z,18.36
2023-03-20T09:16:15.717Z,18.03
2023-03-20T09:17:14.534Z,17.75
2023-03-20T09:18:14.920Z,17.47
2023-03-20T09:19:14.885Z,17.19
2023-03-20T09:20:16.122Z,16.94
2023-03-20T09:21:16.628Z,16.68
2023-03-20T09:22:16.860Z,16.59
2023-03-20T09:23:17.823Z,16.29
2023-03-20T09:24:18.424Z,16.1
2023-03-20T09:25:18.764Z,16
2023-03-20T09:26:19.454Z,15.96
2023-03-20T09:27:19.730Z,15.8
2023-03-20T09:28:20.574Z,15.76
2023-03-20T09:29:21.573Z,15.51
2023-03-20T09:30:22.534Z,15.41
2023-03-20T09:31:23.012Z,15.18
2023-03-20T09:32:23.636Z,15.17
2023-03-20T09:33:24.262Z,15
2023-03-20T09:34:24.531Z,15.07
2023-03-20T09:35:25.388Z,15.02
2023-03-20T09:36:26.733Z,14.97
2023-03-20T09:37:27.677Z,14.81
2023-03-20T09:38:27.571Z,14.67
2023-03-20T09:39:28.642Z,14.43
2023-03-20T09:40:29.269Z,14.34
2023-03-20T09:41:32.469Z,14.18
2023-03-20T09:42:30.644Z,14.07
2023-03-20T09:43:31.204Z,13.79
2023-03-20T09:44:31.637Z,13.65
2023-03-20T09:45:31.614Z,13.5
2023-03-20T09:46:33.090Z,13.39
2023-03-20T09:47:33.447Z,13.23
2023-03-20T09:48:33.952Z,13.13
2023-03-20T09:49:34.638Z,13.19
2023-03-20T09:50:35.993Z,13.16
2023-03-20T09:51:35.388Z,13.12
2023-03-20T09:52:36.328Z,13.02
2023-03-20T09:53:36.590Z,13.02
2023-03-20T09:54:55.364Z,12.88
2023-03-20T09:55:39.288Z,12.87
2023-03-20T09:56:38.424Z,12.78
2023-03-20T09:57:38.119Z,12.76
2023-03-20T09:58:38.487Z,12.8
2023-03-20T09:59:39.458Z,12.75
2023-03-20T10:00:40.709Z,12.84
2023-03-20T10:01:40.690Z,12.81
2023-03-20T10:02:40.421Z,12.83
2023-03-20T10:03:41.968Z,12.87
2023-03-20T10:04:42.036Z,12.8
2023-03-20T10:05:41.997Z,12.9
2023-03-20T10:06:43.348Z,12.86
2023-03-20T10:07:43.634Z,12.8
2023-03-20T10:08:44.281Z,12.83
2023-03-20T10:09:44.991Z,12.87
2023-03-20T10:10:45.312Z,12.8
2023-03-20T10:11:45.917Z,12.78
2023-03-20T10:12:46.160Z,12.83
2023-03-20T10:13:46.722Z,12.8
2023-03-20T10:14:46.982Z,12.83
2023-03-20T10:15:48.131Z,12.83
2023-03-20T10:16:48.460Z,12.81
2023-03-20T10:17:48.744Z,12.81
2023-03-20T10:18:49.875Z,12.63
2023-03-20T10:19:50.393Z,12.51
2023-03-20T10:20:51.457Z,12.58
2023-03-20T10:21:51.958Z,12.55
2023-03-20T10:22:53.016Z,12.57
2023-03-20T10:23:53.643Z,12.57
2023-03-20T10:24:54.615Z,12.61
2023-03-20T10:25:55.943Z,12.65
2023-03-20T10:26:56.503Z,12.69
2023-03-20T10:27:57.024Z,12.66
2023-03-20T10:28:57.091Z,12.65
2023-03-20T10:29:58.064Z,12.63
2023-03-20T10:30:58.318Z,12.57
2023-03-20T10:31:58.673Z,12.48
2023-03-20T10:32:59.029Z,12.51
2023-03-20T10:33:59.931Z,12.45
2023-03-20T10:35:00.646Z,12.4
2023-03-20T10:36:01.263Z,12.39
2023-03-20T10:37:00.741Z,12.36
2023-03-20T10:38:01.960Z,12.28
2023-03-20T10:39:02.602Z,12.37
2023-03-20T10:40:02.846Z,12.3
2023-03-20T10:41:03.214Z,12.29
2023-03-20T10:42:03.324Z,12.26
2023-03-20T10:43:04.097Z,12.21
2023-03-20T10:44:04.802Z,12.17
2023-03-20T10:45:05.688Z,12.08
2023-03-20T10:46:05.655Z,12.2
2023-03-20T10:47:06.479Z,12.15
2023-03-20T10:48:07.141Z,12.1
2023-03-20T10:49:07.696Z,12.08
2023-03-20T10:50:08.385Z,12.12
2023-03-20T10:51:09.042Z,12.2
2023-03-20T10:52:09.408Z,12.15
2023-03-20T10:53:09.745Z,12.3
2023-03-20T10:54:10.117Z,12.14
2023-03-20T10:55:10.075Z,12.18
2023-03-20T10:56:10.827Z,12.14
2023-03-20T10:57:10.945Z,12.15
2023-03-20T10:58:11.881Z,12.25
2023-03-20T10:59:11.719Z,12.26
2023-03-20T11:00:12.682Z,12.35
2023-03-20T11:01:14.008Z,12.36
2023-03-20T11:02:14.392Z,12.44
2023-03-20T11:03:14.903Z,12.43
2023-03-20T11:04:15.289Z,12.48
2023-03-20T11:05:15.679Z,12.5
2023-03-20T11:06:16.341Z,12.62
2023-03-20T11:07:17.283Z,12.65
2023-03-20T11:08:17.573Z,12.62
2023-03-20T11:09:17.718Z,12.65
2023-03-20T11:10:18.139Z,12.68
2023-03-20T11:11:18.752Z,12.84
2023-03-20T11:12:19.036Z,12.8
2023-03-20T11:13:20.067Z,12.95
2023-03-20T11:14:20.603Z,13.01
2023-03-20T11:15:20.847Z,13.01
2023-03-20T11:16:20.759Z,13.17
2023-03-20T11:17:21.863Z,13.23
2023-03-20T11:18:22.547Z,13.23
2023-03-20T11:19:22.783Z,13.3
2023-03-20T11:20:24.095Z,13.36
2023-03-20T11:21:24.590Z,13.55
2023-03-20T11:22:25.849Z,13.58
2023-03-20T11:23:25.915Z,13.6
2023-03-20T11:24:26.431Z,13.7
2023-03-20T11:25:26.397Z,13.65
2023-03-20T11:26:27.003Z,13.73
2023-03-20T11:27:27.619Z,13.79
2023-03-20T11:28:28.251Z,13.85
2023-03-20T11:29:28.594Z,13.98
2023-03-20T11:30:29.549Z,14.03
2023-03-20T11:31:30.294Z,14.05
2023-03-20T11:32:30.802Z,14.11
2023-03-20T11:33:30.758Z,14.2
2023-03-20T11:34:31.717Z,14.36
2023-03-20T11:35:31.962Z,14.31
2023-03-20T11:36:34.247Z,14.37
2023-03-20T11:37:33.179Z,14.36
2023-03-20T11:38:33.694Z,14.34
2023-03-20T11:39:34.435Z,14.36
2023-03-20T11:40:35.065Z,14.31
2023-03-20T11:41:35.239Z,14.34
2023-03-20T11:42:35.886Z,14.33
2023-03-20T11:43:36.250Z,14.37
2023-03-20T11:44:37.198Z,14.19
2023-03-20T11:45:37.658Z,14.26
2023-03-20T11:46:37.702Z,14.22
2023-03-20T11:47:38.496Z,14.28
2023-03-20T11:48:39.001Z,14.25
2023-03-20T11:49:39.757Z,14.2
2023-03-20T11:50:40.329Z,14.33
2023-03-20T11:51:40.804Z,14.22
2023-03-20T11:52:41.590Z,14.3
2023-03-20T11:53:42.863Z,14.31
2023-03-20T11:54:43.150Z,14.31
2023-03-20T11:55:44.427Z,14.41
2023-03-20T11:56:44.401Z,14.33
2023-03-20T11:57:47.766Z,14.36
2023-03-20T11:58:45.003Z,14.4
2023-03-20T11:59:45.362Z,14.38
2023-03-20T12:00:46.634Z,14.48
2023-03-20T12:01:46.951Z,14.49
2023-03-20T12:02:47.097Z,14.48
2023-03-20T12:03:47.663Z,14.52
2023-03-20T12:04:47.768Z,14.58
2023-03-20T12:05:48.316Z,14.56
2023-03-20T12:06:48.829Z,14.68
2023-03-20T12:07:49.057Z,14.82
2023-03-20T12:08:48.979Z,14.9
2023-03-20T12:09:50.278Z,14.93
2023-03-20T12:10:50.546Z,15.07
2023-03-20T12:11:51.574Z,15.02
2023-03-20T12:12:50.866Z,15.08
2023-03-20T12:13:51.928Z,15.07
2023-03-20T12:14:52.338Z,14.99
2023-03-20T12:15:53.377Z,14.97
2023-03-20T12:16:53.709Z,14.97
2023-03-20T12:17:54.952Z,15.05
2023-03-20T12:18:54.910Z,15.1
2023-03-20T12:19:56.001Z,15.12
2023-03-20T12:20:55.983Z,15.14
2023-03-20T12:21:56.922Z,15.15
2023-03-20T12:22:56.844Z,15.05
2023-03-20T12:23:57.353Z,15.04
2023-03-20T12:24:58.020Z,15.04
2023-03-20T12:25:58.693Z,15.08
2023-03-20T12:26:59.676Z,14.9
2023-03-20T12:28:00.240Z,14.93
2023-03-20T12:29:00.469Z,14.96
2023-03-20T12:30:01.311Z,14.92
2023-03-20T12:31:02.427Z,14.77
2023-03-20T12:32:03.059Z,14.73
2023-03-20T12:33:03.184Z,14.67
2023-03-20T12:34:03.683Z,14.58
2023-03-20T12:35:04.211Z,14.73
2023-03-20T12:36:04.559Z,14.61
2023-03-20T12:37:04.906Z,14.62
2023-03-20T12:38:04.921Z,14.55
2023-03-20T12:39:06.228Z,14.63
2023-03-20T12:40:06.578Z,14.58
2023-03-20T12:41:06.870Z,14.58
2023-03-20T12:42:07.493Z,14.55
2023-03-20T12:43:08.085Z,14.56
2023-03-20T12:44:08.358Z,14.41
2023-03-20T12:45:08.662Z,14.45
2023-03-20T12:46:09.629Z,14.44
2023-03-20T12:47:09.519Z,14.4
2023-03-20T12:48:09.779Z,14.44
2023-03-20T12:49:11.034Z,14.36
2023-03-20T12:50:11.762Z,14.38
2023-03-20T12:51:14.273Z,14.48
2023-03-20T12:52:12.537Z,14.37
2023-03-20T12:53:13.049Z,14.33
2023-03-20T12:54:12.985Z,14.36
2023-03-20T12:55:13.944Z,14.34
2023-03-20T12:56:14.921Z,14.3
2023-03-20T12:57:16.527Z,14.19
2023-03-20T12:58:16.866Z,14.18
2023-03-20T12:59:18.123Z,14.18
2023-03-20T13:00:18.851Z,14.2
2023-03-20T13:01:18.942Z,14.2
2023-03-20T13:02:19.246Z,14.15
2023-03-20T13:03:20.129Z,14.03
2023-03-20T13:04:20.119Z,14.03
2023-03-20T13:05:21.382Z,13.94
2023-03-20T13:06:22.386Z,13.87
2023-03-20T13:07:22.616Z,13.89
2023-03-20T13:08:23.133Z,13.82
2023-03-20T13:09:23.484Z,13.85
2023-03-20T13:10:24.065Z,13.83
2023-03-20T13:11:24.840Z,13.82
2023-03-20T13:12:25.154Z,13.93
2023-03-20T13:13:25.472Z,13.97
2023-03-20T13:14:26.490Z,13.93
2023-03-20T13:15:27.954Z,14
2023-03-20T13:16:28.097Z,14.01
2023-03-20T13:17:28.591Z,14.01
2023-03-20T13:18:29.109Z,14.01